sensor_id;sensor_type;location;lat;lon;timestamp;P1;durP1;ratioP1;P2;durP2;ratioP2
17830;SDS011;9040;51.332;12.406;2022-07-25T00:02:25;4.43;;;2.33;;
17830;SDS011;9040;51.332;12.406;2022-07-25T00:04:53;5.77;;;2.80;;
17830;SDS011;9040;51.332;12.406;2022-07-25T00:07:20;7.60;;;2.90;;
17830;SDS011;9040;51.332;12.406;2022-07-25T00:09:47;13.67;;;2.80;;
17830;SDS011;9040;51.332;12.406;2022-07-25T00:12:14;3.20;;;2.03;;
17830;SDS011;9040;51.332;12.406;2022-07-25T00:14:41;10.80;;;3.47;;
17830;SDS011;9040;51.332;12.406;2022-07-25T00:17:08;9.10;;;2.53;;
17830;SDS011;9040;51.332;12.406;2022-07-25T00:19:34;2.90;;;2.67;;
17830;SDS011;9040;51.332;12.406;2022-07-25T00:22:03;15.40;;;2.70;;
17830;SDS011;9040;51.332;12.406;2022-07-25T00:24:29;9.47;;;3.30;;
17830;SDS011;9040;51.332;12.406;2022-07-25T00:26:56;8.53;;;3.57;;
17830;SDS011;9040;51.332;12.406;2022-07-25T00:29:23;5.53;;;3.50;;
17830;SDS011;9040;51.332;12.406;2022-07-25T00:31:50;7.80;;;3.30;;
17830;SDS011;9040;51.332;12.406;2022-07-25T00:34:17;4.97;;;2.07;;
17830;SDS011;9040;51.332;12.406;2022-07-25T00:36:44;6.70;;;3.00;;
17830;SDS011;9040;51.332;12.406;2022-07-25T00:39:12;2.73;;;2.53;;
17830;SDS011;9040;51.332;12.406;2022-07-25T00:41:39;8.47;;;2.90;;
17830;SDS011;9040;51.332;12.406;2022-07-25T00:44:08;9.87;;;3.40;;
17830;SDS011;9040;51.332;12.406;2022-07-25T00:46:36;7.30;;;3.03;;
17830;SDS011;9040;51.332;12.406;2022-07-25T00:49:04;7.40;;;3.13;;
17830;SDS011;9040;51.332;12.406;2022-07-25T00:51:31;3.57;;;2.77;;
17830;SDS011;9040;51.332;12.406;2022-07-25T00:53:58;2.97;;;2.77;;
17830;SDS011;9040;51.332;12.406;2022-07-25T00:56:26;4.07;;;3.60;;
17830;SDS011;9040;51.332;12.406;2022-07-25T00:58:54;9.40;;;3.30;;
17830;SDS011;9040;51.332;12.406;2022-07-25T01:01:20;19.97;;;3.90;;
17830;SDS011;9040;51.332;12.406;2022-07-25T01:03:48;5.80;;;3.07;;
17830;SDS011;9040;51.332;12.406;2022-07-25T01:06:15;13.70;;;4.17;;
17830;SDS011;9040;51.332;12.406;2022-07-25T01:08:42;3.70;;;2.80;;
17830;SDS011;9040;51.332;12.406;2022-07-25T01:11:08;3.30;;;3.10;;
17830;SDS011;9040;51.332;12.406;2022-07-25T01:13:37;16.20;;;2.97;;
17830;SDS011;9040;51.332;12.406;2022-07-25T01:16:04;4.13;;;3.00;;
17830;SDS011;9040;51.332;12.406;2022-07-25T01:18:32;6.57;;;3.57;;
17830;SDS011;9040;51.332;12.406;2022-07-25T01:21:00;5.80;;;3.13;;
17830;SDS011;9040;51.332;12.406;2022-07-25T01:23:27;4.97;;;2.90;;
17830;SDS011;9040;51.332;12.406;2022-07-25T01:25:54;3.80;;;3.27;;
17830;SDS011;9040;51.332;12.406;2022-07-25T01:28:21;6.60;;;3.90;;
17830;SDS011;9040;51.332;12.406;2022-07-25T01:30:48;5.40;;;4.20;;
17830;SDS011;9040;51.332;12.406;2022-07-25T01:33:15;6.20;;;3.53;;
17830;SDS011;9040;51.332;12.406;2022-07-25T01:35:42;4.13;;;3.13;;
17830;SDS011;9040;51.332;12.406;2022-07-25T01:38:12;7.53;;;3.80;;
17830;SDS011;9040;51.332;12.406;2022-07-25T01:40:39;8.77;;;3.80;;
17830;SDS011;9040;51.332;12.406;2022-07-25T01:43:06;6.87;;;3.60;;
17830;SDS011;9040;51.332;12.406;2022-07-25T01:45:33;9.23;;;3.33;;
17830;SDS011;9040;51.332;12.406;2022-07-25T01:48:00;4.33;;;3.70;;
17830;SDS011;9040;51.332;12.406;2022-07-25T01:50:27;5.50;;;3.93;;
17830;SDS011;9040;51.332;12.406;2022-07-25T01:52:54;4.70;;;4.00;;
17830;SDS011;9040;51.332;12.406;2022-07-25T01:55:22;5.00;;;3.70;;
17830;SDS011;9040;51.332;12.406;2022-07-25T01:57:49;16.53;;;4.70;;
17830;SDS011;9040;51.332;12.406;2022-07-25T02:00:16;7.97;;;3.70;;
17830;SDS011;9040;51.332;12.406;2022-07-25T02:02:44;4.83;;;3.53;;
17830;SDS011;9040;51.332;12.406;2022-07-25T02:05:11;4.93;;;4.07;;
17830;SDS011;9040;51.332;12.406;2022-07-25T02:07:39;6.03;;;3.73;;
17830;SDS011;9040;51.332;12.406;2022-07-25T02:10:06;7.43;;;4.53;;
17830;SDS011;9040;51.332;12.406;2022-07-25T02:12:35;6.63;;;3.90;;
17830;SDS011;9040;51.332;12.406;2022-07-25T02:15:02;9.70;;;4.33;;
17830;SDS011;9040;51.332;12.406;2022-07-25T02:17:29;7.13;;;4.13;;
17830;SDS011;9040;51.332;12.406;2022-07-25T02:19:56;8.93;;;4.30;;
17830;SDS011;9040;51.332;12.406;2022-07-25T02:22:23;5.03;;;3.87;;
17830;SDS011;9040;51.332;12.406;2022-07-25T02:24:50;7.40;;;4.43;;
17830;SDS011;9040;51.332;12.406;2022-07-25T02:27:16;6.63;;;4.30;;
17830;SDS011;9040;51.332;12.406;2022-07-25T02:29:45;6.63;;;4.50;;
17830;SDS011;9040;51.332;12.406;2022-07-25T02:32:11;8.17;;;4.40;;
17830;SDS011;9040;51.332;12.406;2022-07-25T02:34:38;4.00;;;3.70;;
17830;SDS011;9040;51.332;12.406;2022-07-25T02:37:05;9.00;;;3.90;;
17830;SDS011;9040;51.332;12.406;2022-07-25T02:39:32;9.67;;;4.00;;
17830;SDS011;9040;51.332;12.406;2022-07-25T02:41:59;6.00;;;4.30;;
17830;SDS011;9040;51.332;12.406;2022-07-25T02:44:25;6.23;;;5.27;;
17830;SDS011;9040;51.332;12.406;2022-07-25T02:46:54;5.10;;;4.67;;
17830;SDS011;9040;51.332;12.406;2022-07-25T02:49:20;29.90;;;5.07;;
17830;SDS011;9040;51.332;12.406;2022-07-25T02:51:47;6.00;;;3.97;;
17830;SDS011;9040;51.332;12.406;2022-07-25T02:54:14;9.00;;;5.17;;
17830;SDS011;9040;51.332;12.406;2022-07-25T02:56:41;5.23;;;4.73;;
17830;SDS011;9040;51.332;12.406;2022-07-25T02:59:08;8.07;;;5.23;;
17830;SDS011;9040;51.332;12.406;2022-07-25T03:01:34;5.90;;;4.50;;
17830;SDS011;9040;51.332;12.406;2022-07-25T03:04:03;7.67;;;5.00;;
17830;SDS011;9040;51.332;12.406;2022-07-25T03:06:30;50.77;;;6.37;;
17830;SDS011;9040;51.332;12.406;2022-07-25T03:08:57;8.13;;;5.60;;
17830;SDS011;9040;51.332;12.406;2022-07-25T03:11:24;6.50;;;5.30;;
17830;SDS011;9040;51.332;12.406;2022-07-25T03:13:50;5.37;;;4.87;;
17830;SDS011;9040;51.332;12.406;2022-07-25T03:16:17;7.30;;;4.20;;
17830;SDS011;9040;51.332;12.406;2022-07-25T03:18:44;12.60;;;5.63;;
17830;SDS011;9040;51.332;12.406;2022-07-25T03:21:12;8.40;;;5.47;;
17830;SDS011;9040;51.332;12.406;2022-07-25T03:23:39;5.60;;;5.10;;
17830;SDS011;9040;51.332;12.406;2022-07-25T03:26:06;10.67;;;5.60;;
17830;SDS011;9040;51.332;12.406;2022-07-25T03:28:33;11.10;;;6.00;;
17830;SDS011;9040;51.332;12.406;2022-07-25T03:31:00;14.70;;;8.30;;
17830;SDS011;9040;51.332;12.406;2022-07-25T03:33:27;9.90;;;6.00;;
17830;SDS011;9040;51.332;12.406;2022-07-25T03:35:53;16.47;;;7.43;;
17830;SDS011;9040;51.332;12.406;2022-07-25T03:38:22;6.00;;;5.50;;
17830;SDS011;9040;51.332;12.406;2022-07-25T03:40:49;10.13;;;6.20;;
17830;SDS011;9040;51.332;12.406;2022-07-25T03:43:16;8.23;;;6.30;;
17830;SDS011;9040;51.332;12.406;2022-07-25T03:45:43;14.30;;;5.53;;
17830;SDS011;9040;51.332;12.406;2022-07-25T03:48:10;9.50;;;5.17;;
17830;SDS011;9040;51.332;12.406;2022-07-25T03:50:37;10.30;;;6.30;;
17830;SDS011;9040;51.332;12.406;2022-07-25T03:53:04;12.60;;;6.73;;
17830;SDS011;9040;51.332;12.406;2022-07-25T03:55:32;5.73;;;5.10;;
17830;SDS011;9040;51.332;12.406;2022-07-25T03:57:59;6.77;;;5.60;;
17830;SDS011;9040;51.332;12.406;2022-07-25T04:00:26;12.97;;;5.83;;
17830;SDS011;9040;51.332;12.406;2022-07-25T04:02:53;6.87;;;4.90;;
17830;SDS011;9040;51.332;12.406;2022-07-25T04:05:19;10.97;;;6.20;;
17830;SDS011;9040;51.332;12.406;2022-07-25T04:07:46;8.67;;;4.90;;
17830;SDS011;9040;51.332;12.406;2022-07-25T04:10:13;12.63;;;6.20;;
17830;SDS011;9040;51.332;12.406;2022-07-25T04:12:41;6.73;;;6.03;;
17830;SDS011;9040;51.332;12.406;2022-07-25T04:15:09;7.87;;;6.80;;
17830;SDS011;9040;51.332;12.406;2022-07-25T04:17:36;16.10;;;6.00;;
17830;SDS011;9040;51.332;12.406;2022-07-25T04:20:04;7.97;;;7.20;;
17830;SDS011;9040;51.332;12.406;2022-07-25T04:22:31;8.13;;;6.37;;
17830;SDS011;9040;51.332;12.406;2022-07-25T04:24:59;10.67;;;6.30;;
17830;SDS011;9040;51.332;12.406;2022-07-25T04:27:26;10.23;;;7.03;;
17830;SDS011;9040;51.332;12.406;2022-07-25T04:29:54;9.33;;;6.20;;
17830;SDS011;9040;51.332;12.406;2022-07-25T04:32:21;6.20;;;5.17;;
17830;SDS011;9040;51.332;12.406;2022-07-25T04:34:47;10.50;;;6.43;;
17830;SDS011;9040;51.332;12.406;2022-07-25T04:37:16;19.10;;;7.40;;
17830;SDS011;9040;51.332;12.406;2022-07-25T04:39:43;10.80;;;6.43;;
17830;SDS011;9040;51.332;12.406;2022-07-25T04:42:10;22.27;;;6.47;;
17830;SDS011;9040;51.332;12.406;2022-07-25T04:44:37;7.40;;;6.60;;
17830;SDS011;9040;51.332;12.406;2022-07-25T04:47:05;10.30;;;6.20;;
17830;SDS011;9040;51.332;12.406;2022-07-25T04:49:32;7.20;;;5.60;;
17830;SDS011;9040;51.332;12.406;2022-07-25T04:51:59;7.40;;;6.63;;
17830;SDS011;9040;51.332;12.406;2022-07-25T04:54:26;9.90;;;6.53;;
17830;SDS011;9040;51.332;12.406;2022-07-25T04:56:53;11.47;;;6.27;;
17830;SDS011;9040;51.332;12.406;2022-07-25T04:59:20;16.10;;;7.20;;
17830;SDS011;9040;51.332;12.406;2022-07-25T05:01:46;14.07;;;7.10;;
17830;SDS011;9040;51.332;12.406;2022-07-25T05:04:15;9.90;;;5.43;;
17830;SDS011;9040;51.332;12.406;2022-07-25T05:06:42;11.77;;;6.97;;
17830;SDS011;9040;51.332;12.406;2022-07-25T05:09:09;15.67;;;9.70;;
17830;SDS011;9040;51.332;12.406;2022-07-25T05:11:35;8.80;;;7.27;;
17830;SDS011;9040;51.332;12.406;2022-07-25T05:14:02;24.90;;;7.93;;
17830;SDS011;9040;51.332;12.406;2022-07-25T05:16:29;11.50;;;7.77;;
17830;SDS011;9040;51.332;12.406;2022-07-25T05:18:56;19.67;;;7.57;;
17830;SDS011;9040;51.332;12.406;2022-07-25T05:21:24;14.93;;;9.30;;
17830;SDS011;9040;51.332;12.406;2022-07-25T05:23:51;21.00;;;8.53;;
17830;SDS011;9040;51.332;12.406;2022-07-25T05:26:18;19.53;;;8.10;;
17830;SDS011;9040;51.332;12.406;2022-07-25T05:28:45;19.83;;;8.13;;
17830;SDS011;9040;51.332;12.406;2022-07-25T05:31:12;11.47;;;7.63;;
17830;SDS011;9040;51.332;12.406;2022-07-25T05:33:38;13.00;;;8.90;;
17830;SDS011;9040;51.332;12.406;2022-07-25T05:36:06;12.00;;;9.33;;
17830;SDS011;9040;51.332;12.406;2022-07-25T05:38:35;13.33;;;9.20;;
17830;SDS011;9040;51.332;12.406;2022-07-25T05:41:02;17.50;;;9.23;;
17830;SDS011;9040;51.332;12.406;2022-07-25T05:43:29;10.83;;;8.30;;
17830;SDS011;9040;51.332;12.406;2022-07-25T05:45:58;9.53;;;8.57;;
17830;SDS011;9040;51.332;12.406;2022-07-25T05:48:27;17.10;;;9.23;;
17830;SDS011;9040;51.332;12.406;2022-07-25T05:50:54;13.60;;;8.50;;
17830;SDS011;9040;51.332;12.406;2022-07-25T05:53:20;14.30;;;7.93;;
17830;SDS011;9040;51.332;12.406;2022-07-25T05:55:49;9.50;;;8.20;;
17830;SDS011;9040;51.332;12.406;2022-07-25T05:58:16;15.80;;;8.60;;
17830;SDS011;9040;51.332;12.406;2022-07-25T06:00:43;16.27;;;7.47;;
17830;SDS011;9040;51.332;12.406;2022-07-25T06:03:10;11.77;;;8.60;;
17830;SDS011;9040;51.332;12.406;2022-07-25T06:05:37;8.07;;;7.30;;
17830;SDS011;9040;51.332;12.406;2022-07-25T06:08:04;11.13;;;8.57;;
17830;SDS011;9040;51.332;12.406;2022-07-25T06:10:31;13.57;;;9.90;;
17830;SDS011;9040;51.332;12.406;2022-07-25T06:12:59;11.03;;;7.70;;
17830;SDS011;9040;51.332;12.406;2022-07-25T06:15:26;12.30;;;8.40;;
17830;SDS011;9040;51.332;12.406;2022-07-25T06:17:53;12.30;;;8.83;;
17830;SDS011;9040;51.332;12.406;2022-07-25T06:20:20;17.03;;;8.40;;
17830;SDS011;9040;51.332;12.406;2022-07-25T06:22:47;16.57;;;10.07;;
17830;SDS011;9040;51.332;12.406;2022-07-25T06:25:14;9.27;;;8.37;;
17830;SDS011;9040;51.332;12.406;2022-07-25T06:27:41;18.50;;;8.33;;
17830;SDS011;9040;51.332;12.406;2022-07-25T06:30:10;12.70;;;8.23;;
17830;SDS011;9040;51.332;12.406;2022-07-25T06:32:37;19.10;;;9.70;;
17830;SDS011;9040;51.332;12.406;2022-07-25T06:35:05;14.90;;;8.30;;
17830;SDS011;9040;51.332;12.406;2022-07-25T06:37:35;44.30;;;10.70;;
17830;SDS011;9040;51.332;12.406;2022-07-25T06:40:02;11.53;;;8.70;;
17830;SDS011;9040;51.332;12.406;2022-07-25T06:42:29;12.43;;;8.13;;
17830;SDS011;9040;51.332;12.406;2022-07-25T06:45:01;15.03;;;9.97;;
17830;SDS011;9040;51.332;12.406;2022-07-25T06:47:30;14.77;;;9.37;;
17830;SDS011;9040;51.332;12.406;2022-07-25T06:49:57;17.63;;;8.07;;
17830;SDS011;9040;51.332;12.406;2022-07-25T06:52:24;11.20;;;8.27;;
17830;SDS011;9040;51.332;12.406;2022-07-25T06:54:50;15.53;;;10.10;;
17830;SDS011;9040;51.332;12.406;2022-07-25T06:57:17;12.10;;;8.70;;
17830;SDS011;9040;51.332;12.406;2022-07-25T06:59:44;15.53;;;9.60;;
17830;SDS011;9040;51.332;12.406;2022-07-25T07:02:11;9.03;;;8.00;;
17830;SDS011;9040;51.332;12.406;2022-07-25T07:04:39;10.70;;;7.70;;
17830;SDS011;9040;51.332;12.406;2022-07-25T07:07:06;23.00;;;8.60;;
17830;SDS011;9040;51.332;12.406;2022-07-25T07:09:33;11.60;;;8.97;;
17830;SDS011;9040;51.332;12.406;2022-07-25T07:12:00;13.40;;;10.00;;
17830;SDS011;9040;51.332;12.406;2022-07-25T07:14:27;14.03;;;7.60;;
17830;SDS011;9040;51.332;12.406;2022-07-25T07:16:54;13.60;;;9.37;;
17830;SDS011;9040;51.332;12.406;2022-07-25T07:19:21;10.10;;;9.10;;
17830;SDS011;9040;51.332;12.406;2022-07-25T07:21:50;18.70;;;9.03;;
17830;SDS011;9040;51.332;12.406;2022-07-25T07:24:17;13.83;;;7.93;;
17830;SDS011;9040;51.332;12.406;2022-07-25T07:26:44;9.93;;;8.50;;
17830;SDS011;9040;51.332;12.406;2022-07-25T07:29:11;12.40;;;8.63;;
17830;SDS011;9040;51.332;12.406;2022-07-25T07:31:37;10.10;;;8.40;;
17830;SDS011;9040;51.332;12.406;2022-07-25T07:34:04;21.07;;;8.13;;
17830;SDS011;9040;51.332;12.406;2022-07-25T07:36:31;13.10;;;9.10;;
17830;SDS011;9040;51.332;12.406;2022-07-25T07:39:00;18.50;;;9.57;;
17830;SDS011;9040;51.332;12.406;2022-07-25T07:41:26;25.90;;;8.10;;
17830;SDS011;9040;51.332;12.406;2022-07-25T07:43:53;17.30;;;7.77;;
17830;SDS011;9040;51.332;12.406;2022-07-25T07:46:20;12.63;;;8.97;;
17830;SDS011;9040;51.332;12.406;2022-07-25T07:48:47;9.60;;;7.67;;
17830;SDS011;9040;51.332;12.406;2022-07-25T07:51:14;12.43;;;8.13;;
17830;SDS011;9040;51.332;12.406;2022-07-25T07:53:41;14.13;;;9.87;;
17830;SDS011;9040;51.332;12.406;2022-07-25T07:56:26;16.60;;;9.13;;
17830;SDS011;9040;51.332;12.406;2022-07-25T07:58:53;16.33;;;7.70;;
17830;SDS011;9040;51.332;12.406;2022-07-25T08:01:20;12.13;;;8.37;;
17830;SDS011;9040;51.332;12.406;2022-07-25T08:03:48;15.23;;;9.50;;
17830;SDS011;9040;51.332;12.406;2022-07-25T08:06:15;10.50;;;8.33;;
17830;SDS011;9040;51.332;12.406;2022-07-25T08:08:42;19.00;;;8.87;;
17830;SDS011;9040;51.332;12.406;2022-07-25T08:11:10;14.40;;;8.70;;
17830;SDS011;9040;51.332;12.406;2022-07-25T08:13:38;11.93;;;8.37;;
17830;SDS011;9040;51.332;12.406;2022-07-25T08:16:05;7.43;;;6.60;;
17830;SDS011;9040;51.332;12.406;2022-07-25T08:18:32;14.80;;;9.27;;
17830;SDS011;9040;51.332;12.406;2022-07-25T08:21:00;14.20;;;8.57;;
17830;SDS011;9040;51.332;12.406;2022-07-25T08:23:30;11.93;;;7.30;;
17830;SDS011;9040;51.332;12.406;2022-07-25T08:25:59;14.53;;;7.20;;
17830;SDS011;9040;51.332;12.406;2022-07-25T08:28:27;26.97;;;8.97;;
17830;SDS011;9040;51.332;12.406;2022-07-25T08:30:55;16.03;;;7.47;;
17830;SDS011;9040;51.332;12.406;2022-07-25T08:33:23;12.20;;;8.10;;
17830;SDS011;9040;51.332;12.406;2022-07-25T08:35:51;10.50;;;7.07;;
17830;SDS011;9040;51.332;12.406;2022-07-25T08:38:19;13.67;;;7.70;;
17830;SDS011;9040;51.332;12.406;2022-07-25T08:40:47;20.63;;;8.57;;
17830;SDS011;9040;51.332;12.406;2022-07-25T08:43:15;12.10;;;7.57;;
17830;SDS011;9040;51.332;12.406;2022-07-25T08:45:43;10.23;;;7.70;;
17830;SDS011;9040;51.332;12.406;2022-07-25T08:48:13;8.60;;;7.80;;
17830;SDS011;9040;51.332;12.406;2022-07-25T08:50:42;11.23;;;8.20;;
17830;SDS011;9040;51.332;12.406;2022-07-25T08:53:09;8.03;;;7.13;;
17830;SDS011;9040;51.332;12.406;2022-07-25T08:55:37;21.67;;;7.80;;
17830;SDS011;9040;51.332;12.406;2022-07-25T08:58:03;11.90;;;7.50;;
17830;SDS011;9040;51.332;12.406;2022-07-25T09:00:30;7.50;;;6.83;;
17830;SDS011;9040;51.332;12.406;2022-07-25T09:02:58;9.60;;;7.00;;
17830;SDS011;9040;51.332;12.406;2022-07-25T09:05:27;14.27;;;6.97;;
17830;SDS011;9040;51.332;12.406;2022-07-25T09:07:56;8.47;;;7.30;;
17830;SDS011;9040;51.332;12.406;2022-07-25T09:10:30;13.10;;;7.40;;
17830;SDS011;9040;51.332;12.406;2022-07-25T09:12:58;17.70;;;6.67;;
17830;SDS011;9040;51.332;12.406;2022-07-25T09:15:26;10.30;;;7.80;;
17830;SDS011;9040;51.332;12.406;2022-07-25T09:17:54;10.40;;;7.27;;
17830;SDS011;9040;51.332;12.406;2022-07-25T09:20:22;11.13;;;7.33;;
17830;SDS011;9040;51.332;12.406;2022-07-25T09:22:52;17.20;;;7.60;;
17830;SDS011;9040;51.332;12.406;2022-07-25T09:25:23;8.10;;;6.50;;
17830;SDS011;9040;51.332;12.406;2022-07-25T09:27:51;7.90;;;7.10;;
17830;SDS011;9040;51.332;12.406;2022-07-25T09:30:18;7.00;;;6.40;;
17830;SDS011;9040;51.332;12.406;2022-07-25T09:32:45;9.73;;;6.87;;
17830;SDS011;9040;51.332;12.406;2022-07-25T09:35:12;9.83;;;7.10;;
17830;SDS011;9040;51.332;12.406;2022-07-25T09:37:39;8.97;;;7.47;;
17830;SDS011;9040;51.332;12.406;2022-07-25T09:40:14;12.97;;;7.60;;
17830;SDS011;9040;51.332;12.406;2022-07-25T09:42:41;7.03;;;6.43;;
17830;SDS011;9040;51.332;12.406;2022-07-25T09:45:11;7.70;;;7.00;;
17830;SDS011;9040;51.332;12.406;2022-07-25T09:47:49;6.90;;;6.20;;
17830;SDS011;9040;51.332;12.406;2022-07-25T09:50:18;13.60;;;7.20;;
17830;SDS011;9040;51.332;12.406;2022-07-25T09:52:45;12.73;;;6.97;;
17830;SDS011;9040;51.332;12.406;2022-07-25T09:55:14;14.93;;;8.40;;
17830;SDS011;9040;51.332;12.406;2022-07-25T09:57:41;16.60;;;7.43;;
17830;SDS011;9040;51.332;12.406;2022-07-25T10:00:10;14.90;;;7.30;;
17830;SDS011;9040;51.332;12.406;2022-07-25T10:02:39;7.40;;;6.80;;
17830;SDS011;9040;51.332;12.406;2022-07-25T10:05:13;11.37;;;7.17;;
17830;SDS011;9040;51.332;12.406;2022-07-25T10:07:44;14.37;;;7.10;;
17830;SDS011;9040;51.332;12.406;2022-07-25T10:10:22;6.90;;;6.40;;
17830;SDS011;9040;51.332;12.406;2022-07-25T10:12:57;8.50;;;7.77;;
17830;SDS011;9040;51.332;12.406;2022-07-25T10:15:38;14.03;;;8.43;;
17830;SDS011;9040;51.332;12.406;2022-07-25T10:18:10;14.43;;;7.63;;
17830;SDS011;9040;51.332;12.406;2022-07-25T10:20:38;7.60;;;6.53;;
17830;SDS011;9040;51.332;12.406;2022-07-25T10:23:15;7.60;;;6.90;;
17830;SDS011;9040;51.332;12.406;2022-07-25T10:25:44;8.90;;;6.67;;
17830;SDS011;9040;51.332;12.406;2022-07-25T10:28:15;13.90;;;7.40;;
17830;SDS011;9040;51.332;12.406;2022-07-25T10:30:43;9.17;;;6.73;;
17830;SDS011;9040;51.332;12.406;2022-07-25T10:33:11;9.43;;;7.30;;
17830;SDS011;9040;51.332;12.406;2022-07-25T10:35:39;7.70;;;6.60;;
17830;SDS011;9040;51.332;12.406;2022-07-25T10:38:07;8.40;;;7.50;;
17830;SDS011;9040;51.332;12.406;2022-07-25T10:40:36;10.67;;;7.50;;
17830;SDS011;9040;51.332;12.406;2022-07-25T10:43:10;8.87;;;6.90;;
17830;SDS011;9040;51.332;12.406;2022-07-25T10:45:42;11.20;;;7.10;;
17830;SDS011;9040;51.332;12.406;2022-07-25T10:48:19;7.43;;;6.73;;
17830;SDS011;9040;51.332;12.406;2022-07-25T10:50:51;17.10;;;6.93;;
17830;SDS011;9040;51.332;12.406;2022-07-25T10:53:31;8.47;;;6.83;;
17830;SDS011;9040;51.332;12.406;2022-07-25T10:56:04;12.97;;;6.70;;
17830;SDS011;9040;51.332;12.406;2022-07-25T10:58:43;10.07;;;6.60;;
17830;SDS011;9040;51.332;12.406;2022-07-25T11:01:18;7.23;;;6.53;;
17830;SDS011;9040;51.332;12.406;2022-07-25T11:03:48;7.10;;;5.60;;
17830;SDS011;9040;51.332;12.406;2022-07-25T11:06:15;7.57;;;6.83;;
17830;SDS011;9040;51.332;12.406;2022-07-25T11:08:53;8.77;;;6.30;;
17830;SDS011;9040;51.332;12.406;2022-07-25T11:11:31;11.17;;;6.53;;
17830;SDS011;9040;51.332;12.406;2022-07-25T11:14:00;10.73;;;6.73;;
17830;SDS011;9040;51.332;12.406;2022-07-25T11:16:28;8.03;;;7.30;;
17830;SDS011;9040;51.332;12.406;2022-07-25T11:18:55;8.50;;;6.07;;
17830;SDS011;9040;51.332;12.406;2022-07-25T11:21:22;6.77;;;6.20;;
17830;SDS011;9040;51.332;12.406;2022-07-25T11:23:49;5.63;;;5.13;;
17830;SDS011;9040;51.332;12.406;2022-07-25T11:26:16;8.37;;;7.53;;
17830;SDS011;9040;51.332;12.406;2022-07-25T11:28:44;10.90;;;6.73;;
17830;SDS011;9040;51.332;12.406;2022-07-25T11:31:14;6.70;;;5.90;;
17830;SDS011;9040;51.332;12.406;2022-07-25T11:33:42;8.57;;;6.73;;
17830;SDS011;9040;51.332;12.406;2022-07-25T11:36:12;7.87;;;7.07;;
17830;SDS011;9040;51.332;12.406;2022-07-25T11:38:40;7.07;;;6.47;;
17830;SDS011;9040;51.332;12.406;2022-07-25T11:41:08;11.70;;;6.70;;
17830;SDS011;9040;51.332;12.406;2022-07-25T11:43:35;9.17;;;7.20;;
17830;SDS011;9040;51.332;12.406;2022-07-25T11:46:02;12.77;;;6.47;;
17830;SDS011;9040;51.332;12.406;2022-07-25T11:48:34;11.43;;;7.90;;
17830;SDS011;9040;51.332;12.406;2022-07-25T11:51:10;6.07;;;5.47;;
17830;SDS011;9040;51.332;12.406;2022-07-25T11:53:40;7.10;;;6.50;;
17830;SDS011;9040;51.332;12.406;2022-07-25T11:56:12;9.60;;;6.90;;
17830;SDS011;9040;51.332;12.406;2022-07-25T11:58:40;7.33;;;6.73;;
17830;SDS011;9040;51.332;12.406;2022-07-25T12:01:11;7.33;;;6.20;;
17830;SDS011;9040;51.332;12.406;2022-07-25T12:03:41;6.23;;;5.77;;
17830;SDS011;9040;51.332;12.406;2022-07-25T12:06:09;7.07;;;6.20;;
17830;SDS011;9040;51.332;12.406;2022-07-25T12:08:38;12.43;;;6.10;;
17830;SDS011;9040;51.332;12.406;2022-07-25T12:11:15;8.13;;;6.40;;
17830;SDS011;9040;51.332;12.406;2022-07-25T12:13:43;8.20;;;6.00;;
17830;SDS011;9040;51.332;12.406;2022-07-25T12:16:11;10.57;;;6.50;;
17830;SDS011;9040;51.332;12.406;2022-07-25T12:18:38;8.50;;;7.70;;
17830;SDS011;9040;51.332;12.406;2022-07-25T12:21:06;6.90;;;6.40;;
17830;SDS011;9040;51.332;12.406;2022-07-25T12:23:33;11.53;;;8.10;;
17830;SDS011;9040;51.332;12.406;2022-07-25T12:26:00;8.80;;;6.93;;
17830;SDS011;9040;51.332;12.406;2022-07-25T12:28:27;9.40;;;6.57;;
17830;SDS011;9040;51.332;12.406;2022-07-25T12:30:54;6.70;;;6.10;;
17830;SDS011;9040;51.332;12.406;2022-07-25T12:33:20;8.27;;;7.47;;
17830;SDS011;9040;51.332;12.406;2022-07-25T12:35:47;7.43;;;6.73;;
17830;SDS011;9040;51.332;12.406;2022-07-25T12:38:16;7.47;;;6.80;;
17830;SDS011;9040;51.332;12.406;2022-07-25T12:40:43;24.33;;;7.70;;
17830;SDS011;9040;51.332;12.406;2022-07-25T12:43:10;7.20;;;6.60;;
17830;SDS011;9040;51.332;12.406;2022-07-25T12:45:38;7.20;;;6.40;;
17830;SDS011;9040;51.332;12.406;2022-07-25T12:48:06;6.83;;;6.23;;
17830;SDS011;9040;51.332;12.406;2022-07-25T12:50:36;5.10;;;4.80;;
17830;SDS011;9040;51.332;12.406;2022-07-25T12:53:03;5.87;;;5.37;;
17830;SDS011;9040;51.332;12.406;2022-07-25T12:55:32;6.23;;;5.83;;
17830;SDS011;9040;51.332;12.406;2022-07-25T12:58:00;6.93;;;6.23;;
17830;SDS011;9040;51.332;12.406;2022-07-25T13:00:27;6.53;;;4.80;;
17830;SDS011;9040;51.332;12.406;2022-07-25T13:02:54;5.93;;;4.87;;
17830;SDS011;9040;51.332;12.406;2022-07-25T13:05:21;8.03;;;5.07;;
17830;SDS011;9040;51.332;12.406;2022-07-25T13:07:48;5.70;;;4.57;;
17830;SDS011;9040;51.332;12.406;2022-07-25T13:10:15;4.20;;;3.90;;
17830;SDS011;9040;51.332;12.406;2022-07-25T13:12:45;4.23;;;3.53;;
17830;SDS011;9040;51.332;12.406;2022-07-25T13:15:12;7.10;;;4.20;;
17830;SDS011;9040;51.332;12.406;2022-07-25T13:17:39;5.23;;;3.50;;
17830;SDS011;9040;51.332;12.406;2022-07-25T13:20:07;3.37;;;3.17;;
17830;SDS011;9040;51.332;12.406;2022-07-25T13:22:35;3.57;;;3.47;;
17830;SDS011;9040;51.332;12.406;2022-07-25T13:25:02;3.13;;;3.00;;
17830;SDS011;9040;51.332;12.406;2022-07-25T13:27:29;3.60;;;3.40;;
17830;SDS011;9040;51.332;12.406;2022-07-25T13:29:58;3.63;;;3.53;;
17830;SDS011;9040;51.332;12.406;2022-07-25T13:32:24;4.70;;;4.40;;
17830;SDS011;9040;51.332;12.406;2022-07-25T13:34:52;7.00;;;4.50;;
17830;SDS011;9040;51.332;12.406;2022-07-25T13:37:19;9.33;;;4.27;;
17830;SDS011;9040;51.332;12.406;2022-07-25T13:39:46;4.53;;;4.20;;
17830;SDS011;9040;51.332;12.406;2022-07-25T13:42:13;5.63;;;4.43;;
17830;SDS011;9040;51.332;12.406;2022-07-25T13:44:40;5.80;;;5.40;;
17830;SDS011;9040;51.332;12.406;2022-07-25T13:47:08;6.10;;;5.70;;
17830;SDS011;9040;51.332;12.406;2022-07-25T13:49:35;6.83;;;5.77;;
17830;SDS011;9040;51.332;12.406;2022-07-25T13:52:02;10.03;;;7.33;;
17830;SDS011;9040;51.332;12.406;2022-07-25T13:54:29;24.17;;;7.63;;
17830;SDS011;9040;51.332;12.406;2022-07-25T13:56:56;6.60;;;5.30;;
17830;SDS011;9040;51.332;12.406;2022-07-25T13:59:23;5.07;;;4.67;;
17830;SDS011;9040;51.332;12.406;2022-07-25T14:01:50;8.80;;;5.00;;
17830;SDS011;9040;51.332;12.406;2022-07-25T14:04:18;6.53;;;5.90;;
17830;SDS011;9040;51.332;12.406;2022-07-25T14:06:45;6.30;;;4.73;;
17830;SDS011;9040;51.332;12.406;2022-07-25T14:09:16;7.53;;;6.27;;
17830;SDS011;9040;51.332;12.406;2022-07-25T14:11:43;6.00;;;4.80;;
17830;SDS011;9040;51.332;12.406;2022-07-25T14:14:10;15.83;;;6.13;;
17830;SDS011;9040;51.332;12.406;2022-07-25T14:16:37;5.97;;;5.00;;
17830;SDS011;9040;51.332;12.406;2022-07-25T14:19:04;8.43;;;4.80;;
17830;SDS011;9040;51.332;12.406;2022-07-25T14:21:33;9.77;;;5.53;;
17830;SDS011;9040;51.332;12.406;2022-07-25T14:24:00;9.67;;;4.87;;
17830;SDS011;9040;51.332;12.406;2022-07-25T14:26:26;6.90;;;5.53;;
17830;SDS011;9040;51.332;12.406;2022-07-25T14:28:55;12.73;;;5.37;;
17830;SDS011;9040;51.332;12.406;2022-07-25T14:31:22;6.83;;;5.10;;
17830;SDS011;9040;51.332;12.406;2022-07-25T14:33:48;5.87;;;5.37;;
17830;SDS011;9040;51.332;12.406;2022-07-25T14:36:15;6.83;;;5.47;;
17830;SDS011;9040;51.332;12.406;2022-07-25T14:38:44;10.10;;;5.13;;
17830;SDS011;9040;51.332;12.406;2022-07-25T14:41:12;5.63;;;5.30;;
17830;SDS011;9040;51.332;12.406;2022-07-25T14:43:39;6.50;;;5.30;;
17830;SDS011;9040;51.332;12.406;2022-07-25T14:46:06;7.90;;;5.50;;